createdAt,value
2023-05-08T00:04:11.897Z,6.18
2023-05-08T00:09:16.503Z,6.93
2023-05-08T00:14:19.695Z,8.02
2023-05-08T00:19:22.680Z,7.07
2023-05-08T00:24:27.018Z,6.63
2023-05-08T00:29:30.021Z,6.72
2023-05-08T00:34:33.245Z,7.50
2023-05-08T00:39:37.595Z,7.97
2023-05-08T00:44:41.330Z,9.10
2023-05-08T00:49:44.915Z,9.55
2023-05-08T00:54:50.535Z,7.85
2023-05-08T00:59:54.120Z,7.50
2023-05-08T01:04:58.046Z,7.03
2023-05-08T01:10:02.972Z,7.75
2023-05-08T01:15:17.010Z,8.88
2023-05-08T01:20:33.595Z,9.25
2023-05-08T01:25:58.390Z,10.30
2023-05-08T01:31:09.342Z,10.43
2023-05-08T01:36:21.806Z,9.97
2023-05-08T01:41:29.007Z,10.43
2023-05-08T01:46:34.139Z,8.40
2023-05-08T01:51:42.764Z,7.87
2023-05-08T01:56:49.016Z,7.37
2023-05-08T02:01:56.921Z,10.47
2023-05-08T02:07:02.180Z,9.70
2023-05-08T02:12:08.299Z,8.77
2023-05-08T02:17:13.824Z,9.73
2023-05-08T02:22:19.420Z,8.77
2023-05-08T02:27:24.141Z,7.37
2023-05-08T02:32:29.295Z,7.47
2023-05-08T02:37:35.265Z,7.53
2023-05-08T02:42:38.416Z,7.27
2023-05-08T02:47:48.805Z,6.50
2023-05-08T02:52:56.837Z,11.00
2023-05-08T02:58:09.193Z,12.23
2023-05-08T03:03:19.612Z,12.20
2023-05-08T03:08:28.980Z,12.60
2023-05-08T03:13:35.932Z,12.60
2023-05-08T03:18:48.141Z,12.33
2023-05-08T03:23:56.223Z,13.57
2023-05-08T03:29:00.903Z,13.43
2023-05-08T03:34:09.622Z,14.33
2023-05-08T03:39:14.763Z,13.70
2023-05-08T03:44:19.052Z,12.20
2023-05-08T03:49:25.240Z,13.17
2023-05-08T03:54:30.381Z,10.90
2023-05-08T03:59:44.038Z,11.27
2023-05-08T04:04:51.284Z,11.33
2023-05-08T04:10:04.847Z,10.93
2023-05-08T04:15:15.518Z,11.67
2023-05-08T04:20:23.397Z,12.10
2023-05-08T04:25:29.913Z,11.43
2023-05-08T04:30:33.448Z,11.03
2023-05-08T04:35:37.078Z,10.33
2023-05-08T04:40:41.763Z,11.47
2023-05-08T04:45:47.280Z,12.30
2023-05-08T04:50:54.016Z,13.13
2023-05-08T04:55:59.406Z,12.77
2023-05-08T05:01:03.841Z,13.50
2023-05-08T05:06:08.064Z,13.73
2023-05-08T05:11:12.582Z,16.20
2023-05-08T05:16:15.733Z,15.33
2023-05-08T05:21:18.957Z,17.27
2023-05-08T05:26:23.915Z,14.38
2023-05-08T05:31:27.255Z,15.43
2023-05-08T05:36:32.659Z,16.60
2023-05-08T05:41:37.357Z,16.55
2023-05-08T05:46:42.780Z,22.75
2023-05-08T05:51:49.608Z,23.43
2023-05-08T05:56:55.018Z,25.55
2023-05-08T06:01:58.155Z,26.35
2023-05-08T06:07:01.172Z,25.33
2023-05-08T06:12:06.650Z,25.15
2023-05-08T06:17:10.008Z,26.33
2023-05-08T06:22:13.139Z,27.30
2023-05-08T06:27:17.683Z,26.98
2023-05-08T06:32:21.276Z,30.33
2023-05-08T06:37:24.472Z,30.27
2023-05-08T06:42:28.887Z,38.05
2023-05-08T06:47:31.994Z,40.35
2023-05-08T06:52:35.011Z,39.80
2023-05-08T06:57:39.349Z,41.33
2023-05-08T07:02:42.359Z,38.53
2023-05-08T07:07:45.576Z,38.08
2023-05-08T07:12:52.864Z,38.60
2023-05-08T07:17:56.008Z,39.75
2023-05-08T07:22:59.100Z,38.70
2023-05-08T07:28:03.843Z,37.50
2023-05-08T07:33:06.919Z,37.38
2023-05-08T07:38:11.206Z,38.42
2023-05-08T07:43:15.558Z,40.17
2023-05-08T07:48:18.650Z,41.17
2023-05-08T07:53:21.878Z,43.83
2023-05-08T07:58:27.052Z,40.30
2023-05-08T08:03:30.563Z,38.60
2023-05-08T08:08:36.769Z,37.28
2023-05-08T08:13:41.085Z,37.47
2023-05-08T08:18:44.058Z,40.35
2023-05-08T08:23:47.219Z,39.55
2023-05-08T08:28:51.874Z,39.88
2023-05-08T08:33:55.373Z,37.42
2023-05-08T08:38:58.468Z,36.83
2023-05-08T08:44:02.935Z,37.00
2023-05-08T08:49:08.977Z,37.47
2023-05-08T08:54:17.505Z,36.88
2023-05-08T08:59:24.815Z,34.05
2023-05-08T09:04:29.698Z,30.30
2023-05-08T09:09:36.106Z,34.35
2023-05-08T09:14:40.492Z,35.70
2023-05-08T09:19:44.932Z,33.53
2023-05-08T09:24:59.435Z,31.60
2023-05-08T09:30:06.136Z,31.90
2023-05-08T09:35:11.352Z,33.00
2023-05-08T09:40:18.916Z,31.80
2023-05-08T09:45:30.140Z,34.15
2023-05-08T09:50:33.628Z,31.65
2023-05-08T09:55:48.332Z,31.73
2023-05-08T10:00:52.738Z,32.25
2023-05-08T10:05:55.941Z,31.48
2023-05-08T10:11:14.947Z,33.63
2023-05-08T10:16:20.173Z,32.40
2023-05-08T10:21:24.795Z,31.98
2023-05-08T10:26:32.611Z,29.85
2023-05-08T10:31:42.244Z,30.17
2023-05-08T10:36:47.401Z,29.10
2023-05-08T10:41:51.518Z,27.63
2023-05-08T10:47:01.588Z,25.00
2023-05-08T10:52:17.578Z,26.38
2023-05-08T10:57:21.007Z,27.30
2023-05-08T11:02:30.390Z,28.40
2023-05-08T11:07:54.566Z,27.63
2023-05-08T11:12:59.094Z,25.08
2023-05-08T11:18:05.377Z,27.08
2023-05-08T11:23:23.888Z,27.17
2023-05-08T11:28:26.926Z,26.33
2023-05-08T11:33:38.047Z,26.55
2023-05-08T11:38:43.614Z,23.98
2023-05-08T11:44:16.688Z,26.15
2023-05-08T11:49:25.973Z,23.13
2023-05-08T11:54:32.014Z,22.08
2023-05-08T11:59:37.214Z,19.88
2023-05-08T12:04:48.516Z,21.20
2023-05-08T12:09:52.471Z,24.75
2023-05-08T12:14:55.839Z,22.40
2023-05-08T12:20:11.255Z,22.23
2023-05-08T12:25:15.426Z,22.23
2023-05-08T12:30:19.482Z,22.90
2023-05-08T12:35:24.342Z,22.33
2023-05-08T12:40:28.960Z,22.35
2023-05-08T12:45:36.906Z,21.27
2023-05-08T12:50:42.791Z,21.67
2023-05-08T12:55:53.080Z,21.45
2023-05-08T13:01:07.511Z,22.45
2023-05-08T13:06:22.677Z,20.50
2023-05-08T13:11:34.326Z,19.55
2023-05-08T13:16:47.848Z,20.52
2023-05-08T13:21:52.928Z,20.75
2023-05-08T13:26:56.155Z,21.27
2023-05-08T13:31:59.447Z,22.08
2023-05-08T13:37:03.940Z,22.60
2023-05-08T13:42:07.110Z,23.52
2023-05-08T13:47:11.107Z,22.77
2023-05-08T13:52:15.585Z,23.25
2023-05-08T13:57:18.912Z,26.05
2023-05-08T14:02:22.073Z,26.75
2023-05-08T14:07:28.219Z,29.77
2023-05-08T14:12:33.399Z,33.33
2023-05-08T14:17:36.733Z,36.05
2023-05-08T14:22:41.567Z,38.50
2023-05-08T14:27:44.626Z,42.10
2023-05-08T14:32:47.737Z,42.58
2023-05-08T14:37:53.310Z,44.30
2023-05-08T14:42:56.295Z,43.08
2023-05-08T14:47:59.387Z,46.47
2023-05-08T14:53:03.984Z,49.35
2023-05-08T14:58:09.504Z,43.17
2023-05-08T15:03:15.956Z,43.88
2023-05-08T15:08:20.669Z,37.00
2023-05-08T15:13:23.677Z,36.88
2023-05-08T15:18:28.535Z,34.88
2023-05-08T15:23:32.953Z,32.83
2023-05-08T15:28:36.562Z,34.03
2023-05-08T15:33:44.571Z,32.28
2023-05-08T15:38:53.962Z,29.98
2023-05-08T15:43:57.177Z,27.85
2023-05-08T15:49:02.573Z,29.13
2023-05-08T15:54:07.730Z,29.40
2023-05-08T15:59:10.938Z,26.27
2023-05-08T16:04:14.498Z,22.95
2023-05-08T16:09:19.073Z,22.88
2023-05-08T16:14:22.186Z,20.55
2023-05-08T16:19:25.229Z,19.00
2023-05-08T16:24:30.019Z,19.50
2023-05-08T16:29:33.428Z,18.33
2023-05-08T16:34:36.789Z,19.40
2023-05-08T16:39:41.287Z,16.65
2023-05-08T16:44:44.289Z,17.27
2023-05-08T16:49:47.486Z,15.75
2023-05-08T16:54:52.126Z,17.90
2023-05-08T16:59:55.255Z,21.00
2023-05-08T17:04:58.594Z,22.48
2023-05-08T17:10:03.212Z,23.35
2023-05-08T17:15:07.537Z,23.70
2023-05-08T17:20:13.262Z,23.73
2023-05-08T17:25:17.997Z,24.38
2023-05-08T17:30:20.962Z,27.08
2023-05-08T17:35:24.301Z,27.85
2023-05-08T17:40:28.955Z,25.73
2023-05-08T17:45:33.527Z,27.50
2023-05-08T17:50:39.541Z,25.80
2023-05-08T17:55:44.497Z,26.52
2023-05-08T18:00:47.617Z,24.67
2023-05-08T18:05:50.936Z,22.92
2023-05-08T18:10:56.686Z,21.63
2023-05-08T18:16:01.093Z,21.50
2023-05-08T18:21:04.402Z,20.77
2023-05-08T18:26:08.941Z,21.27
2023-05-08T18:31:12.231Z,21.02
2023-05-08T18:36:15.392Z,21.05
2023-05-08T18:41:19.900Z,22.17
2023-05-08T18:46:23.059Z,20.95
2023-05-08T18:51:26.093Z,21.05
2023-05-08T18:56:30.740Z,20.83
2023-05-08T19:01:35.696Z,23.35
2023-05-08T19:06:38.953Z,22.40
2023-05-08T19:11:44.017Z,21.20
2023-05-08T19:16:51.667Z,21.60
2023-05-08T19:21:54.773Z,23.50
2023-05-08T19:26:59.425Z,24.33
2023-05-08T19:32:04.466Z,21.88
2023-05-08T19:37:07.569Z,24.33
2023-05-08T19:42:14.235Z,22.17
2023-05-08T19:47:17.652Z,22.50
2023-05-08T19:52:20.937Z,24.02
2023-05-08T19:57:25.203Z,24.45
2023-05-08T20:02:28.336Z,24.52
2023-05-08T20:07:31.405Z,23.70
2023-05-08T20:12:38.064Z,26.73
2023-05-08T20:17:41.153Z,25.45
2023-05-08T20:22:44.160Z,24.85
2023-05-08T20:27:48.551Z,24.90
2023-05-08T20:32:51.699Z,25.58
2023-05-08T20:37:54.753Z,23.45
2023-05-08T20:42:59.410Z,25.63
2023-05-08T20:48:06.366Z,25.83
2023-05-08T20:53:17.114Z,26.40
2023-05-08T20:58:24.549Z,26.65
2023-05-08T21:03:27.944Z,25.35
2023-05-08T21:08:32.292Z,26.80
2023-05-08T21:13:39.948Z,25.92
2023-05-08T21:18:43.032Z,26.58
2023-05-08T21:23:46.209Z,24.67
2023-05-08T21:28:52.394Z,29.05
2023-05-08T21:33:55.570Z,29.33
2023-05-08T21:38:58.694Z,29.52
2023-05-08T21:44:05.789Z,27.85
2023-05-08T21:49:09.192Z,29.13
2023-05-08T21:54:12.528Z,28.05
2023-05-08T21:59:18.588Z,27.63
2023-05-08T22:04:21.749Z,26.60
2023-05-08T22:09:25.071Z,27.55
2023-05-08T22:14:30.895Z,26.98
2023-05-08T22:19:35.315Z,24.10
2023-05-08T22:24:38.749Z,24.60
2023-05-08T22:29:43.236Z,24.48
2023-05-08T22:34:49.903Z,22.35
2023-05-08T22:39:53.183Z,20.70
2023-05-08T22:44:58.003Z,21.98
2023-05-08T22:50:01.148Z,22.17
2023-05-08T22:55:06.690Z,23.88
2023-05-08T23:00:12.774Z,22.98
2023-05-08T23:05:16.027Z,25.38
2023-05-08T23:10:19.409Z,23.85
2023-05-08T23:15:23.960Z,24.55
2023-05-08T23:20:27.222Z,23.75
2023-05-08T23:25:30.273Z,22.98
2023-05-08T23:30:34.641Z,21.55
2023-05-08T23:35:37.738Z,21.00
2023-05-08T23:40:40.708Z,21.38
2023-05-08T23:45:45.168Z,23.17
2023-05-08T23:50:50.482Z,22.13
2023-05-08T23:55:53.519Z,18.85
